sensor_id;sensor_type;location;lat;lon;timestamp;P1;durP1;ratioP1;P2;durP2;ratioP2
45764;SDS011;31474;45.332;10.230;2023-08-30T00:00:45;3.35;;;1.65;;
45764;SDS011;31474;45.332;10.230;2023-08-30T00:03:11;4.40;;;1.90;;
45764;SDS011;31474;45.332;10.230;2023-08-30T00:05:41;6.10;;;1.75;;
45764;SDS011;31474;45.332;10.230;2023-08-30T00:08:07;2.85;;;1.92;;
45764;SDS011;31474;45.332;10.230;2023-08-30T00:10:33;5.68;;;2.15;;
45764;SDS011;31474;45.332;10.230;2023-08-30T00:12:59;3.85;;;2.17;;
45764;SDS011;31474;45.332;10.230;2023-08-30T00:15:25;2.85;;;1.60;;
45764;SDS011;31474;45.332;10.230;2023-08-30T00:17:51;2.88;;;1.88;;
45764;SDS011;31474;45.332;10.230;2023-08-30T00:20:17;3.45;;;2.67;;
45764;SDS011;31474;45.332;10.230;2023-08-30T00:22:43;3.40;;;1.75;;
45764;SDS011;31474;45.332;10.230;2023-08-30T00:25:09;5.45;;;1.60;;
45764;SDS011;31474;45.332;10.230;2023-08-30T00:27:34;3.90;;;1.95;;
45764;SDS011;31474;45.332;10.230;2023-08-30T00:30:00;4.97;;;2.40;;
45764;SDS011;31474;45.332;10.230;2023-08-30T00:32:26;3.83;;;2.00;;
45764;SDS011;31474;45.332;10.230;2023-08-30T00:34:51;5.53;;;1.83;;
45764;SDS011;31474;45.332;10.230;2023-08-30T00:37:17;5.78;;;2.30;;
45764;SDS011;31474;45.332;10.230;2023-08-30T00:39:43;2.80;;;1.90;;
45764;SDS011;31474;45.332;10.230;2023-08-30T00:42:08;3.03;;;1.90;;
45764;SDS011;31474;45.332;10.230;2023-08-30T00:44:34;4.93;;;2.53;;
45764;SDS011;31474;45.332;10.230;2023-08-30T00:47:00;4.53;;;2.08;;
45764;SDS011;31474;45.332;10.230;2023-08-30T00:49:28;2.78;;;1.85;;
45764;SDS011;31474;45.332;10.230;2023-08-30T00:51:54;4.78;;;2.30;;
45764;SDS011;31474;45.332;10.230;2023-08-30T00:54:21;4.75;;;2.22;;
45764;SDS011;31474;45.332;10.230;2023-08-30T00:56:47;4.93;;;2.10;;
45764;SDS011;31474;45.332;10.230;2023-08-30T00:59:13;3.40;;;2.20;;
45764;SDS011;31474;45.332;10.230;2023-08-30T01:01:39;7.30;;;2.30;;
45764;SDS011;31474;45.332;10.230;2023-08-30T01:04:06;2.53;;;2.17;;
45764;SDS011;31474;45.332;10.230;2023-08-30T01:06:32;4.32;;;2.33;;
45764;SDS011;31474;45.332;10.230;2023-08-30T01:09:00;4.28;;;2.13;;
45764;SDS011;31474;45.332;10.230;2023-08-30T01:14:22;3.40;;;2.30;;
45764;SDS011;31474;45.332;10.230;2023-08-30T01:16:53;8.50;;;2.53;;
45764;SDS011;31474;45.332;10.230;2023-08-30T01:28:05;5.10;;;2.22;;
45764;SDS011;31474;45.332;10.230;2023-08-30T01:30:32;3.65;;;2.15;;
45764;SDS011;31474;45.332;10.230;2023-08-30T01:33:02;5.32;;;2.67;;
45764;SDS011;31474;45.332;10.230;2023-08-30T01:35:29;5.90;;;2.35;;
45764;SDS011;31474;45.332;10.230;2023-08-30T01:38:01;5.43;;;2.60;;
45764;SDS011;31474;45.332;10.230;2023-08-30T01:40:29;10.50;;;2.53;;
45764;SDS011;31474;45.332;10.230;2023-08-30T01:42:59;3.20;;;2.10;;
45764;SDS011;31474;45.332;10.230;2023-08-30T01:45:25;4.38;;;2.55;;
45764;SDS011;31474;45.332;10.230;2023-08-30T01:47:53;5.47;;;2.63;;
45764;SDS011;31474;45.332;10.230;2023-08-30T01:50:21;3.42;;;2.58;;
45764;SDS011;31474;45.332;10.230;2023-08-30T01:52:46;7.47;;;2.53;;
45764;SDS011;31474;45.332;10.230;2023-08-30T01:55:13;3.67;;;2.53;;
45764;SDS011;31474;45.332;10.230;2023-08-30T01:57:39;5.15;;;3.00;;
45764;SDS011;31474;45.332;10.230;2023-08-30T02:00:06;6.25;;;2.90;;
45764;SDS011;31474;45.332;10.230;2023-08-30T02:02:32;4.75;;;2.50;;
45764;SDS011;31474;45.332;10.230;2023-08-30T02:04:58;2.90;;;2.60;;
45764;SDS011;31474;45.332;10.230;2023-08-30T02:07:29;2.95;;;2.58;;
45764;SDS011;31474;45.332;10.230;2023-08-30T02:10:37;5.80;;;2.70;;
45764;SDS011;31474;45.332;10.230;2023-08-30T02:13:09;5.30;;;2.60;;
45764;SDS011;31474;45.332;10.230;2023-08-30T02:15:37;3.90;;;2.83;;
45764;SDS011;31474;45.332;10.230;2023-08-30T02:18:06;8.20;;;2.72;;
45764;SDS011;31474;45.332;10.230;2023-08-30T02:20:33;5.53;;;2.97;;
45764;SDS011;31474;45.332;10.230;2023-08-30T02:22:59;5.40;;;2.83;;
45764;SDS011;31474;45.332;10.230;2023-08-30T02:25:25;6.55;;;2.90;;
45764;SDS011;31474;45.332;10.230;2023-08-30T02:27:51;5.35;;;3.20;;
45764;SDS011;31474;45.332;10.230;2023-08-30T02:30:17;4.70;;;2.80;;
45764;SDS011;31474;45.332;10.230;2023-08-30T02:32:42;3.38;;;2.55;;
45764;SDS011;31474;45.332;10.230;2023-08-30T02:35:08;6.53;;;2.97;;
45764;SDS011;31474;45.332;10.230;2023-08-30T02:37:34;5.32;;;2.70;;
45764;SDS011;31474;45.332;10.230;2023-08-30T02:39:59;4.05;;;2.63;;
45764;SDS011;31474;45.332;10.230;2023-08-30T02:42:26;6.03;;;3.10;;
45764;SDS011;31474;45.332;10.230;2023-08-30T02:44:51;7.72;;;2.75;;
45764;SDS011;31474;45.332;10.230;2023-08-30T02:47:18;7.45;;;3.28;;
45764;SDS011;31474;45.332;10.230;2023-08-30T02:49:43;6.18;;;2.97;;
45764;SDS011;31474;45.332;10.230;2023-08-30T02:52:09;5.47;;;2.97;;
45764;SDS011;31474;45.332;10.230;2023-08-30T02:54:34;4.80;;;2.80;;
45764;SDS011;31474;45.332;10.230;2023-08-30T02:57:00;5.85;;;2.35;;
45764;SDS011;31474;45.332;10.230;2023-08-30T02:59:26;8.10;;;2.65;;
45764;SDS011;31474;45.332;10.230;2023-08-30T03:01:51;5.25;;;3.20;;
45764;SDS011;31474;45.332;10.230;2023-08-30T03:04:17;5.65;;;2.97;;
45764;SDS011;31474;45.332;10.230;2023-08-30T03:06:43;6.35;;;3.15;;
45764;SDS011;31474;45.332;10.230;2023-08-30T03:09:08;7.05;;;3.10;;
45764;SDS011;31474;45.332;10.230;2023-08-30T03:11:34;7.22;;;3.25;;
45764;SDS011;31474;45.332;10.230;2023-08-30T03:14:00;9.52;;;3.20;;
45764;SDS011;31474;45.332;10.230;2023-08-30T03:16:25;4.35;;;3.13;;
45764;SDS011;31474;45.332;10.230;2023-08-30T03:18:51;5.40;;;3.13;;
45764;SDS011;31474;45.332;10.230;2023-08-30T03:21:16;6.63;;;3.10;;
45764;SDS011;31474;45.332;10.230;2023-08-30T03:23:42;3.95;;;2.67;;
45764;SDS011;31474;45.332;10.230;2023-08-30T03:26:09;6.60;;;3.60;;
45764;SDS011;31474;45.332;10.230;2023-08-30T03:28:39;5.68;;;3.10;;
45764;SDS011;31474;45.332;10.230;2023-08-30T03:31:15;5.00;;;3.08;;
45764;SDS011;31474;45.332;10.230;2023-08-30T03:33:45;7.93;;;3.47;;
45764;SDS011;31474;45.332;10.230;2023-08-30T03:36:11;5.30;;;3.38;;
45764;SDS011;31474;45.332;10.230;2023-08-30T03:38:38;4.38;;;3.00;;
45764;SDS011;31474;45.332;10.230;2023-08-30T03:41:04;7.45;;;3.22;;
45764;SDS011;31474;45.332;10.230;2023-08-30T03:43:30;9.75;;;2.90;;
45764;SDS011;31474;45.332;10.230;2023-08-30T03:45:57;12.20;;;3.85;;
45764;SDS011;31474;45.332;10.230;2023-08-30T03:48:24;6.00;;;2.53;;
45764;SDS011;31474;45.332;10.230;2023-08-30T03:50:49;4.35;;;2.90;;
45764;SDS011;31474;45.332;10.230;2023-08-30T03:53:15;6.15;;;3.25;;
45764;SDS011;31474;45.332;10.230;2023-08-30T03:55:41;8.73;;;3.70;;
45764;SDS011;31474;45.332;10.230;2023-08-30T03:58:06;5.85;;;2.60;;
45764;SDS011;31474;45.332;10.230;2023-08-30T04:00:33;5.90;;;3.17;;
45764;SDS011;31474;45.332;10.230;2023-08-30T04:03:01;5.80;;;3.17;;
45764;SDS011;31474;45.332;10.230;2023-08-30T04:05:31;7.20;;;3.05;;
45764;SDS011;31474;45.332;10.230;2023-08-30T04:07:58;7.55;;;3.05;;
45764;SDS011;31474;45.332;10.230;2023-08-30T04:10:24;6.95;;;2.70;;
45764;SDS011;31474;45.332;10.230;2023-08-30T04:12:49;2.95;;;2.53;;
45764;SDS011;31474;45.332;10.230;2023-08-30T04:15:15;6.95;;;3.00;;
45764;SDS011;31474;45.332;10.230;2023-08-30T04:17:41;4.70;;;3.42;;
45764;SDS011;31474;45.332;10.230;2023-08-30T04:20:06;4.45;;;3.03;;
45764;SDS011;31474;45.332;10.230;2023-08-30T04:22:32;5.53;;;3.72;;
45764;SDS011;31474;45.332;10.230;2023-08-30T04:24:59;4.57;;;2.88;;
45764;SDS011;31474;45.332;10.230;2023-08-30T04:27:25;4.95;;;3.20;;
45764;SDS011;31474;45.332;10.230;2023-08-30T04:29:52;6.82;;;3.92;;
45764;SDS011;31474;45.332;10.230;2023-08-30T04:32:18;4.85;;;3.20;;
45764;SDS011;31474;45.332;10.230;2023-08-30T04:34:43;5.70;;;3.20;;
45764;SDS011;31474;45.332;10.230;2023-08-30T04:37:09;5.40;;;3.42;;
45764;SDS011;31474;45.332;10.230;2023-08-30T04:39:35;5.35;;;3.40;;
45764;SDS011;31474;45.332;10.230;2023-08-30T04:42:00;8.75;;;3.67;;
45764;SDS011;31474;45.332;10.230;2023-08-30T04:44:27;6.15;;;4.05;;
45764;SDS011;31474;45.332;10.230;2023-08-30T04:46:53;6.35;;;3.85;;
45764;SDS011;31474;45.332;10.230;2023-08-30T04:49:20;6.50;;;3.38;;
45764;SDS011;31474;45.332;10.230;2023-08-30T04:51:46;6.05;;;3.42;;
45764;SDS011;31474;45.332;10.230;2023-08-30T04:54:12;7.20;;;3.30;;
45764;SDS011;31474;45.332;10.230;2023-08-30T04:56:38;5.45;;;3.20;;
45764;SDS011;31474;45.332;10.230;2023-08-30T04:59:03;5.85;;;3.88;;
45764;SDS011;31474;45.332;10.230;2023-08-30T05:01:29;3.80;;;3.35;;
45764;SDS011;31474;45.332;10.230;2023-08-30T05:03:55;10.00;;;3.28;;
45764;SDS011;31474;45.332;10.230;2023-08-30T05:06:21;6.70;;;3.53;;
45764;SDS011;31474;45.332;10.230;2023-08-30T05:08:47;4.07;;;3.25;;
45764;SDS011;31474;45.332;10.230;2023-08-30T05:11:12;4.85;;;3.55;;
45764;SDS011;31474;45.332;10.230;2023-08-30T05:13:38;4.32;;;3.20;;
45764;SDS011;31474;45.332;10.230;2023-08-30T05:16:04;4.25;;;3.58;;
45764;SDS011;31474;45.332;10.230;2023-08-30T05:18:30;6.38;;;3.83;;
45764;SDS011;31474;45.332;10.230;2023-08-30T05:20:55;3.65;;;3.08;;
45764;SDS011;31474;45.332;10.230;2023-08-30T05:23:21;4.78;;;3.60;;
45764;SDS011;31474;45.332;10.230;2023-08-30T05:25:47;5.22;;;3.28;;
45764;SDS011;31474;45.332;10.230;2023-08-30T05:28:13;6.25;;;3.60;;
45764;SDS011;31474;45.332;10.230;2023-08-30T05:30:41;6.20;;;3.58;;
45764;SDS011;31474;45.332;10.230;2023-08-30T05:33:08;8.23;;;3.67;;
45764;SDS011;31474;45.332;10.230;2023-08-30T05:35:34;4.13;;;3.25;;
45764;SDS011;31474;45.332;10.230;2023-08-30T05:38:00;8.80;;;3.40;;
45764;SDS011;31474;45.332;10.230;2023-08-30T05:40:25;4.65;;;3.58;;
45764;SDS011;31474;45.332;10.230;2023-08-30T05:42:51;6.18;;;3.97;;
45764;SDS011;31474;45.332;10.230;2023-08-30T05:45:17;7.45;;;3.83;;
45764;SDS011;31474;45.332;10.230;2023-08-30T05:47:42;7.38;;;3.83;;
45764;SDS011;31474;45.332;10.230;2023-08-30T05:50:08;5.30;;;4.80;;
45764;SDS011;31474;45.332;10.230;2023-08-30T05:52:34;4.88;;;3.85;;
45764;SDS011;31474;45.332;10.230;2023-08-30T05:55:00;6.63;;;3.10;;
45764;SDS011;31474;45.332;10.230;2023-08-30T05:57:25;5.57;;;4.32;;
45764;SDS011;31474;45.332;10.230;2023-08-30T05:59:52;6.75;;;4.32;;
45764;SDS011;31474;45.332;10.230;2023-08-30T06:02:18;6.32;;;3.72;;
45764;SDS011;31474;45.332;10.230;2023-08-30T06:04:43;13.25;;;4.43;;
45764;SDS011;31474;45.332;10.230;2023-08-30T06:07:09;14.43;;;4.63;;
45764;SDS011;31474;45.332;10.230;2023-08-30T06:09:35;5.82;;;3.65;;
45764;SDS011;31474;45.332;10.230;2023-08-30T06:12:00;9.30;;;3.75;;
45764;SDS011;31474;45.332;10.230;2023-08-30T06:14:26;5.35;;;3.92;;
45764;SDS011;31474;45.332;10.230;2023-08-30T06:16:52;6.95;;;3.55;;
45764;SDS011;31474;45.332;10.230;2023-08-30T06:19:18;5.32;;;3.83;;
45764;SDS011;31474;45.332;10.230;2023-08-30T06:21:43;8.77;;;3.75;;
45764;SDS011;31474;45.332;10.230;2023-08-30T06:24:09;4.78;;;3.42;;
45764;SDS011;31474;45.332;10.230;2023-08-30T06:26:34;8.57;;;3.75;;
45764;SDS011;31474;45.332;10.230;2023-08-30T06:29:00;6.53;;;4.18;;
45764;SDS011;31474;45.332;10.230;2023-08-30T06:31:26;5.15;;;4.00;;
45764;SDS011;31474;45.332;10.230;2023-08-30T06:33:52;5.93;;;4.13;;
45764;SDS011;31474;45.332;10.230;2023-08-30T06:36:18;6.93;;;4.28;;
45764;SDS011;31474;45.332;10.230;2023-08-30T06:38:44;5.70;;;3.85;;
45764;SDS011;31474;45.332;10.230;2023-08-30T06:41:09;12.48;;;4.22;;
45764;SDS011;31474;45.332;10.230;2023-08-30T06:43:35;6.90;;;4.15;;
45764;SDS011;31474;45.332;10.230;2023-08-30T06:46:02;6.25;;;3.90;;
45764;SDS011;31474;45.332;10.230;2023-08-30T06:48:28;7.22;;;3.78;;
45764;SDS011;31474;45.332;10.230;2023-08-30T06:50:56;5.20;;;3.42;;
45764;SDS011;31474;45.332;10.230;2023-08-30T06:53:23;5.60;;;3.75;;
45764;SDS011;31474;45.332;10.230;2023-08-30T06:55:58;6.00;;;3.60;;
45764;SDS011;31474;45.332;10.230;2023-08-30T06:58:25;5.28;;;3.55;;
45764;SDS011;31474;45.332;10.230;2023-08-30T07:00:50;6.57;;;3.78;;
45764;SDS011;31474;45.332;10.230;2023-08-30T07:03:16;5.05;;;3.42;;
45764;SDS011;31474;45.332;10.230;2023-08-30T07:05:42;5.78;;;3.55;;
45764;SDS011;31474;45.332;10.230;2023-08-30T07:08:08;6.90;;;3.50;;
45764;SDS011;31474;45.332;10.230;2023-08-30T07:10:34;5.90;;;3.38;;
45764;SDS011;31474;45.332;10.230;2023-08-30T07:13:00;10.98;;;3.95;;
45764;SDS011;31474;45.332;10.230;2023-08-30T07:15:26;6.93;;;3.72;;
45764;SDS011;31474;45.332;10.230;2023-08-30T07:17:52;4.18;;;3.55;;
45764;SDS011;31474;45.332;10.230;2023-08-30T07:20:17;4.10;;;3.40;;
45764;SDS011;31474;45.332;10.230;2023-08-30T07:22:43;5.80;;;3.40;;
45764;SDS011;31474;45.332;10.230;2023-08-30T07:25:09;6.32;;;3.50;;
45764;SDS011;31474;45.332;10.230;2023-08-30T07:27:38;5.93;;;3.28;;
45764;SDS011;31474;45.332;10.230;2023-08-30T07:30:04;5.80;;;3.25;;
45764;SDS011;31474;45.332;10.230;2023-08-30T07:32:30;4.53;;;3.28;;
45764;SDS011;31474;45.332;10.230;2023-08-30T07:34:56;4.63;;;2.83;;
45764;SDS011;31474;45.332;10.230;2023-08-30T07:37:22;8.88;;;4.60;;
45764;SDS011;31474;45.332;10.230;2023-08-30T07:39:47;5.28;;;2.97;;
45764;SDS011;31474;45.332;10.230;2023-08-30T07:42:13;6.07;;;2.75;;
45764;SDS011;31474;45.332;10.230;2023-08-30T07:44:42;3.75;;;3.10;;
45764;SDS011;31474;45.332;10.230;2023-08-30T07:47:08;4.25;;;3.25;;
45764;SDS011;31474;45.332;10.230;2023-08-30T07:49:33;3.83;;;3.08;;
45764;SDS011;31474;45.332;10.230;2023-08-30T07:52:00;5.72;;;3.08;;
45764;SDS011;31474;45.332;10.230;2023-08-30T07:54:25;4.47;;;3.03;;
45764;SDS011;31474;45.332;10.230;2023-08-30T07:56:51;3.83;;;2.63;;
45764;SDS011;31474;45.332;10.230;2023-08-30T07:59:17;5.35;;;3.78;;
45764;SDS011;31474;45.332;10.230;2023-08-30T08:01:42;7.28;;;3.10;;
45764;SDS011;31474;45.332;10.230;2023-08-30T08:04:08;3.78;;;3.03;;
45764;SDS011;31474;45.332;10.230;2023-08-30T08:06:33;3.90;;;2.75;;
45764;SDS011;31474;45.332;10.230;2023-08-30T08:08:59;4.03;;;2.90;;
45764;SDS011;31474;45.332;10.230;2023-08-30T08:11:25;6.38;;;3.00;;
45764;SDS011;31474;45.332;10.230;2023-08-30T08:13:51;5.38;;;3.45;;
45764;SDS011;31474;45.332;10.230;2023-08-30T08:16:17;4.90;;;3.13;;
45764;SDS011;31474;45.332;10.230;2023-08-30T08:18:42;4.45;;;2.90;;
45764;SDS011;31474;45.332;10.230;2023-08-30T08:21:08;6.82;;;2.70;;
45764;SDS011;31474;45.332;10.230;2023-08-30T08:23:34;4.88;;;2.75;;
45764;SDS011;31474;45.332;10.230;2023-08-30T08:26:00;5.82;;;3.40;;
45764;SDS011;31474;45.332;10.230;2023-08-30T08:28:26;6.70;;;2.33;;
45764;SDS011;31474;45.332;10.230;2023-08-30T08:30:51;4.70;;;2.28;;
45764;SDS011;31474;45.332;10.230;2023-08-30T08:33:17;4.30;;;2.38;;
45764;SDS011;31474;45.332;10.230;2023-08-30T08:35:43;3.25;;;2.28;;
45764;SDS011;31474;45.332;10.230;2023-08-30T08:38:09;3.90;;;2.92;;
45764;SDS011;31474;45.332;10.230;2023-08-30T08:40:38;4.55;;;2.70;;
45764;SDS011;31474;45.332;10.230;2023-08-30T08:43:05;4.18;;;2.85;;
45764;SDS011;31474;45.332;10.230;2023-08-30T08:45:34;3.75;;;2.88;;
45764;SDS011;31474;45.332;10.230;2023-08-30T08:48:03;5.72;;;2.53;;
45764;SDS011;31474;45.332;10.230;2023-08-30T08:50:29;6.57;;;2.95;;
45764;SDS011;31474;45.332;10.230;2023-08-30T08:52:55;4.18;;;2.95;;
45764;SDS011;31474;45.332;10.230;2023-08-30T08:55:22;4.50;;;2.30;;
45764;SDS011;31474;45.332;10.230;2023-08-30T08:57:48;3.13;;;2.58;;
45764;SDS011;31474;45.332;10.230;2023-08-30T09:00:14;5.07;;;3.08;;
45764;SDS011;31474;45.332;10.230;2023-08-30T09:02:41;5.43;;;2.40;;
45764;SDS011;31474;45.332;10.230;2023-08-30T09:05:08;3.90;;;2.40;;
45764;SDS011;31474;45.332;10.230;2023-08-30T09:07:35;4.10;;;3.00;;
45764;SDS011;31474;45.332;10.230;2023-08-30T09:10:02;4.43;;;2.30;;
45764;SDS011;31474;45.332;10.230;2023-08-30T09:12:31;3.90;;;2.60;;
45764;SDS011;31474;45.332;10.230;2023-08-30T09:14:57;5.45;;;2.42;;
45764;SDS011;31474;45.332;10.230;2023-08-30T09:17:23;3.92;;;3.00;;
45764;SDS011;31474;45.332;10.230;2023-08-30T09:20:05;4.28;;;2.72;;
45764;SDS011;31474;45.332;10.230;2023-08-30T09:22:40;7.85;;;3.00;;
45764;SDS011;31474;45.332;10.230;2023-08-30T09:25:11;4.05;;;2.92;;
45764;SDS011;31474;45.332;10.230;2023-08-30T09:27:47;3.47;;;2.50;;
45764;SDS011;31474;45.332;10.230;2023-08-30T09:30:13;6.35;;;3.42;;
45764;SDS011;31474;45.332;10.230;2023-08-30T09:32:40;4.25;;;2.92;;
45764;SDS011;31474;45.332;10.230;2023-08-30T09:35:07;4.30;;;3.30;;
45764;SDS011;31474;45.332;10.230;2023-08-30T09:37:33;4.78;;;2.83;;
45764;SDS011;31474;45.332;10.230;2023-08-30T09:39:59;6.03;;;2.78;;
45764;SDS011;31474;45.332;10.230;2023-08-30T09:42:25;5.00;;;3.40;;
45764;SDS011;31474;45.332;10.230;2023-08-30T09:44:50;5.85;;;3.03;;
45764;SDS011;31474;45.332;10.230;2023-08-30T09:47:16;4.55;;;2.88;;
45764;SDS011;31474;45.332;10.230;2023-08-30T09:49:45;4.13;;;2.47;;
45764;SDS011;31474;45.332;10.230;2023-08-30T09:52:14;4.10;;;3.28;;
45764;SDS011;31474;45.332;10.230;2023-08-30T09:54:43;5.15;;;3.92;;
45764;SDS011;31474;45.332;10.230;2023-08-30T09:57:11;6.95;;;2.83;;
45764;SDS011;31474;45.332;10.230;2023-08-30T09:59:39;5.28;;;3.38;;
45764;SDS011;31474;45.332;10.230;2023-08-30T10:02:05;5.82;;;3.05;;
45764;SDS011;31474;45.332;10.230;2023-08-30T10:04:31;3.33;;;2.88;;
45764;SDS011;31474;45.332;10.230;2023-08-30T10:06:57;3.70;;;2.80;;
45764;SDS011;31474;45.332;10.230;2023-08-30T10:09:24;4.88;;;2.90;;
45764;SDS011;31474;45.332;10.230;2023-08-30T10:11:51;6.03;;;3.00;;
45764;SDS011;31474;45.332;10.230;2023-08-30T10:14:17;7.20;;;2.63;;
45764;SDS011;31474;45.332;10.230;2023-08-30T10:16:43;3.35;;;2.47;;
45764;SDS011;31474;45.332;10.230;2023-08-30T10:21:44;6.18;;;2.47;;
45764;SDS011;31474;45.332;10.230;2023-08-30T10:24:10;4.35;;;2.60;;
45764;SDS011;31474;45.332;10.230;2023-08-30T10:26:38;5.93;;;2.03;;
45764;SDS011;31474;45.332;10.230;2023-08-30T10:29:08;3.85;;;1.92;;
45764;SDS011;31474;45.332;10.230;2023-08-30T10:31:35;8.68;;;2.25;;
45764;SDS011;31474;45.332;10.230;2023-08-30T10:34:11;5.35;;;2.20;;
45764;SDS011;31474;45.332;10.230;2023-08-30T10:36:42;2.22;;;1.48;;
45764;SDS011;31474;45.332;10.230;2023-08-30T10:39:11;3.13;;;1.90;;
45764;SDS011;31474;45.332;10.230;2023-08-30T10:41:53;1.23;;;1.02;;
45764;SDS011;31474;45.332;10.230;2023-08-30T10:44:20;2.65;;;1.40;;
45764;SDS011;31474;45.332;10.230;2023-08-30T10:46:51;2.65;;;1.20;;
45764;SDS011;31474;45.332;10.230;2023-08-30T10:49:18;2.95;;;1.10;;
45764;SDS011;31474;45.332;10.230;2023-08-30T10:51:43;2.28;;;1.10;;
45764;SDS011;31474;45.332;10.230;2023-08-30T10:54:10;3.38;;;1.00;;
45764;SDS011;31474;45.332;10.230;2023-08-30T10:56:46;2.10;;;1.17;;
45764;SDS011;31474;45.332;10.230;2023-08-30T10:59:19;2.10;;;1.10;;
45764;SDS011;31474;45.332;10.230;2023-08-30T11:04:12;2.63;;;1.02;;
45764;SDS011;31474;45.332;10.230;2023-08-30T11:06:41;2.08;;;1.02;;
45764;SDS011;31474;45.332;10.230;2023-08-30T11:09:08;1.27;;;0.80;;
45764;SDS011;31474;45.332;10.230;2023-08-30T11:11:34;1.23;;;0.50;;
45764;SDS011;31474;45.332;10.230;2023-08-30T11:14:09;1.65;;;0.98;;
45764;SDS011;31474;45.332;10.230;2023-08-30T11:16:35;4.47;;;0.70;;
45764;SDS011;31474;45.332;10.230;2023-08-30T11:19:02;2.13;;;0.85;;
45764;SDS011;31474;45.332;10.230;2023-08-30T11:21:39;1.27;;;0.52;;
45764;SDS011;31474;45.332;10.230;2023-08-30T11:24:08;2.58;;;1.08;;
45764;SDS011;31474;45.332;10.230;2023-08-30T11:26:34;1.92;;;0.90;;
45764;SDS011;31474;45.332;10.230;2023-08-30T11:29:07;1.33;;;0.95;;
45764;SDS011;31474;45.332;10.230;2023-08-30T11:33:59;2.33;;;0.90;;
45764;SDS011;31474;45.332;10.230;2023-08-30T11:36:29;1.92;;;0.82;;
45764;SDS011;31474;45.332;10.230;2023-08-30T11:38:55;1.60;;;0.65;;
45764;SDS011;31474;45.332;10.230;2023-08-30T11:41:22;0.95;;;0.52;;
45764;SDS011;31474;45.332;10.230;2023-08-30T11:43:49;1.17;;;0.63;;
45764;SDS011;31474;45.332;10.230;2023-08-30T11:46:16;0.77;;;0.50;;
45764;SDS011;31474;45.332;10.230;2023-08-30T11:48:43;2.17;;;0.65;;
45764;SDS011;31474;45.332;10.230;2023-08-30T11:51:09;1.50;;;1.00;;
45764;SDS011;31474;45.332;10.230;2023-08-30T11:53:39;0.70;;;0.40;;
45764;SDS011;31474;45.332;10.230;2023-08-30T11:56:05;0.52;;;0.40;;
45764;SDS011;31474;45.332;10.230;2023-08-30T11:58:32;0.90;;;0.50;;
45764;SDS011;31474;45.332;10.230;2023-08-30T12:00:59;3.08;;;0.85;;
45764;SDS011;31474;45.332;10.230;2023-08-30T12:03:28;2.47;;;1.00;;
45764;SDS011;31474;45.332;10.230;2023-08-30T12:05:54;2.08;;;1.80;;
45764;SDS011;31474;45.332;10.230;2023-08-30T12:08:20;1.90;;;0.85;;
45764;SDS011;31474;45.332;10.230;2023-08-30T12:10:50;1.98;;;0.88;;
45764;SDS011;31474;45.332;10.230;2023-08-30T12:13:25;1.23;;;0.60;;
45764;SDS011;31474;45.332;10.230;2023-08-30T12:15:53;2.35;;;1.00;;
45764;SDS011;31474;45.332;10.230;2023-08-30T12:18:21;2.40;;;0.80;;
45764;SDS011;31474;45.332;10.230;2023-08-30T12:20:52;1.45;;;1.27;;
45764;SDS011;31474;45.332;10.230;2023-08-30T12:23:25;1.77;;;0.80;;
45764;SDS011;31474;45.332;10.230;2023-08-30T12:26:03;2.10;;;0.63;;
45764;SDS011;31474;45.332;10.230;2023-08-30T12:28:30;2.20;;;0.90;;
45764;SDS011;31474;45.332;10.230;2023-08-30T12:30:57;5.32;;;0.70;;
45764;SDS011;31474;45.332;10.230;2023-08-30T12:33:23;1.80;;;0.65;;
45764;SDS011;31474;45.332;10.230;2023-08-30T12:35:52;2.33;;;0.60;;
45764;SDS011;31474;45.332;10.230;2023-08-30T12:38:18;1.20;;;0.80;;
45764;SDS011;31474;45.332;10.230;2023-08-30T12:40:44;1.80;;;0.60;;
45764;SDS011;31474;45.332;10.230;2023-08-30T12:43:14;1.30;;;0.60;;
45764;SDS011;31474;45.332;10.230;2023-08-30T12:45:40;0.93;;;0.40;;
45764;SDS011;31474;45.332;10.230;2023-08-30T12:48:07;0.77;;;0.50;;
45764;SDS011;31474;45.332;10.230;2023-08-30T12:50:33;1.67;;;0.73;;
45764;SDS011;31474;45.332;10.230;2023-08-30T12:53:00;1.55;;;0.57;;
45764;SDS011;31474;45.332;10.230;2023-08-30T12:55:27;1.08;;;0.70;;
45764;SDS011;31474;45.332;10.230;2023-08-30T12:57:52;1.55;;;0.50;;
45764;SDS011;31474;45.332;10.230;2023-08-30T13:00:18;1.45;;;0.50;;
45764;SDS011;31474;45.332;10.230;2023-08-30T13:02:44;1.00;;;0.40;;
45764;SDS011;31474;45.332;10.230;2023-08-30T13:05:10;0.95;;;0.47;;
45764;SDS011;31474;45.332;10.230;2023-08-30T13:07:36;1.27;;;0.50;;
45764;SDS011;31474;45.332;10.230;2023-08-30T13:10:02;1.02;;;0.57;;
45764;SDS011;31474;45.332;10.230;2023-08-30T13:12:28;0.93;;;0.57;;
45764;SDS011;31474;45.332;10.230;2023-08-30T13:14:54;2.15;;;0.50;;
45764;SDS011;31474;45.332;10.230;2023-08-30T13:17:20;0.55;;;0.25;;
45764;SDS011;31474;45.332;10.230;2023-08-30T13:19:45;3.67;;;0.45;;
45764;SDS011;31474;45.332;10.230;2023-08-30T13:22:11;2.15;;;0.30;;
45764;SDS011;31474;45.332;10.230;2023-08-30T13:24:36;0.85;;;0.40;;
45764;SDS011;31474;45.332;10.230;2023-08-30T13:27:02;1.00;;;0.52;;
45764;SDS011;31474;45.332;10.230;2023-08-30T13:29:29;0.95;;;0.40;;
45764;SDS011;31474;45.332;10.230;2023-08-30T13:31:55;1.48;;;0.40;;
45764;SDS011;31474;45.332;10.230;2023-08-30T13:34:20;1.00;;;0.43;;
45764;SDS011;31474;45.332;10.230;2023-08-30T13:36:46;0.57;;;0.30;;
45764;SDS011;31474;45.332;10.230;2023-08-30T13:39:12;1.08;;;0.40;;
45764;SDS011;31474;45.332;10.230;2023-08-30T13:41:37;0.68;;;0.32;;
45764;SDS011;31474;45.332;10.230;2023-08-30T13:44:03;1.80;;;0.35;;
45764;SDS011;31474;45.332;10.230;2023-08-30T13:46:30;0.80;;;0.30;;
45764;SDS011;31474;45.332;10.230;2023-08-30T13:48:55;3.08;;;0.35;;
45764;SDS011;31474;45.332;10.230;2023-08-30T13:51:22;0.40;;;0.30;;
45764;SDS011;31474;45.332;10.230;2023-08-30T13:53:48;0.93;;;0.40;;
45764;SDS011;31474;45.332;10.230;2023-08-30T13:56:14;0.85;;;0.45;;
45764;SDS011;31474;45.332;10.230;2023-08-30T13:58:40;1.30;;;0.75;;
45764;SDS011;31474;45.332;10.230;2023-08-30T14:01:06;3.25;;;0.40;;
45764;SDS011;31474;45.332;10.230;2023-08-30T14:03:32;0.80;;;0.30;;
45764;SDS011;31474;45.332;10.230;2023-08-30T14:05:57;1.17;;;0.28;;
45764;SDS011;31474;45.332;10.230;2023-08-30T14:08:23;4.57;;;0.30;;
45764;SDS011;31474;45.332;10.230;2023-08-30T14:10:49;0.60;;;0.25;;
45764;SDS011;31474;45.332;10.230;2023-08-30T14:13:14;3.83;;;0.50;;
45764;SDS011;31474;45.332;10.230;2023-08-30T14:15:40;2.13;;;0.73;;
45764;SDS011;31474;45.332;10.230;2023-08-30T14:18:07;1.30;;;0.30;;
45764;SDS011;31474;45.332;10.230;2023-08-30T14:20:33;0.70;;;0.22;;
45764;SDS011;31474;45.332;10.230;2023-08-30T14:22:59;0.55;;;0.40;;
45764;SDS011;31474;45.332;10.230;2023-08-30T14:25:24;0.55;;;0.20;;
45764;SDS011;31474;45.332;10.230;2023-08-30T14:27:50;1.02;;;0.30;;
45764;SDS011;31474;45.332;10.230;2023-08-30T14:30:16;1.52;;;0.30;;
45764;SDS011;31474;45.332;10.230;2023-08-30T14:32:41;1.95;;;0.30;;
45764;SDS011;31474;45.332;10.230;2023-08-30T14:35:07;0.75;;;0.20;;
45764;SDS011;31474;45.332;10.230;2023-08-30T14:37:33;1.33;;;0.40;;
45764;SDS011;31474;45.332;10.230;2023-08-30T14:40:01;0.65;;;0.38;;
45764;SDS011;31474;45.332;10.230;2023-08-30T14:42:29;1.30;;;0.52;;
45764;SDS011;31474;45.332;10.230;2023-08-30T14:44:55;0.50;;;0.30;;
45764;SDS011;31474;45.332;10.230;2023-08-30T14:47:21;1.88;;;0.50;;
45764;SDS011;31474;45.332;10.230;2023-08-30T14:49:46;0.47;;;0.20;;